createdAt,value
2018-06-30T00:01:42.784Z,60.86
2018-06-30T00:04:17.196Z,60.43
2018-06-30T00:06:51.678Z,60.64
2018-06-30T00:09:26.296Z,60.21
2018-06-30T00:12:00.833Z,60.03
2018-06-30T00:14:35.324Z,59.96
2018-06-30T00:17:10.034Z,59.48
2018-06-30T00:19:44.567Z,59.64
2018-06-30T00:22:19.379Z,59.45
2018-06-30T00:24:53.933Z,59.97
2018-06-30T00:27:28.604Z,59.66
2018-06-30T00:30:03.096Z,59.44
2018-06-30T00:32:37.623Z,59.33
2018-06-30T00:35:12.169Z,59.92
2018-06-30T00:37:46.710Z,60.05
2018-06-30T00:40:21.284Z,59.94
2018-06-30T00:42:55.867Z,59.46
2018-06-30T00:45:30.513Z,59.19
2018-06-30T00:48:05.220Z,59.70
2018-06-30T00:50:39.708Z,59.62
2018-06-30T00:53:14.074Z,60.13
2018-06-30T00:55:48.462Z,60.27
2018-06-30T00:58:22.886Z,60.39
2018-06-30T01:00:57.517Z,60.30
2018-06-30T01:03:32.132Z,60.44
2018-06-30T01:06:06.500Z,60.55
2018-06-30T01:08:40.917Z,61.26
2018-06-30T01:11:15.511Z,61.74
2018-06-30T01:13:50.006Z,61.85
2018-06-30T01:16:24.903Z,61.65
2018-06-30T01:18:59.439Z,61.94
2018-06-30T01:21:33.834Z,62.03
2018-06-30T01:24:08.910Z,62.11
2018-06-30T01:26:43.614Z,62.44
2018-06-30T01:29:18.232Z,62.52
2018-06-30T01:31:52.898Z,62.05
2018-06-30T01:34:27.561Z,62.70
2018-06-30T01:37:02.124Z,62.02
2018-06-30T01:39:36.683Z,62.27
2018-06-30T01:42:11.217Z,63.31
2018-06-30T01:44:45.693Z,63.12
2018-06-30T01:47:20.480Z,63.14
2018-06-30T01:49:55.007Z,62.78
2018-06-30T01:52:29.632Z,63.35
2018-06-30T01:55:04.276Z,64.03
2018-06-30T01:57:39.129Z,64.46
2018-06-30T02:00:13.732Z,64.09
2018-06-30T02:02:48.217Z,64.06
2018-06-30T02:05:22.657Z,63.90
2018-06-30T02:07:57.357Z,64.24
2018-06-30T02:10:31.983Z,64.26
2018-06-30T02:13:06.701Z,64.83
2018-06-30T02:15:41.165Z,64.26
2018-06-30T02:18:15.809Z,64.85
2018-06-30T02:20:50.355Z,64.99
2018-06-30T02:23:24.733Z,64.99
2018-06-30T02:25:59.197Z,64.80
2018-06-30T02:28:33.656Z,65.36
2018-06-30T02:31:08.050Z,65.30
2018-06-30T02:33:42.669Z,65.18
2018-06-30T02:36:17.091Z,65.38
2018-06-30T02:38:51.523Z,65.31
2018-06-30T02:41:25.992Z,65.28
2018-06-30T02:44:00.614Z,65.03
2018-06-30T02:46:35.204Z,65.57
2018-06-30T02:49:09.678Z,65.95
2018-06-30T02:51:44.112Z,66.29
2018-06-30T02:54:18.510Z,66.10
2018-06-30T02:56:53.203Z,66.67
2018-06-30T02:59:27.908Z,66.89
2018-06-30T03:02:02.396Z,66.60
2018-06-30T03:04:37.053Z,66.57
2018-06-30T03:07:11.716Z,66.89
2018-06-30T03:09:46.312Z,66.94
2018-06-30T03:12:20.899Z,66.67
2018-06-30T03:14:55.457Z,66.96
2018-06-30T03:17:29.915Z,67.40
2018-06-30T03:20:04.863Z,67.46
2018-06-30T03:22:39.341Z,67.12
2018-06-30T03:25:13.820Z,67.48
2018-06-30T03:27:48.405Z,68.14
2018-06-30T03:30:23.044Z,67.99
2018-06-30T03:32:57.878Z,67.86
2018-06-30T03:35:32.540Z,68.79
2018-06-30T03:38:07.022Z,68.06
2018-06-30T03:40:41.593Z,68.47
2018-06-30T03:43:16.317Z,68.17
2018-06-30T03:45:50.822Z,68.98
2018-06-30T03:48:25.420Z,68.60
2018-06-30T03:51:00.104Z,67.68
2018-06-30T03:53:34.574Z,68.09
2018-06-30T03:56:09.176Z,67.92
2018-06-30T03:58:43.555Z,67.91
2018-06-30T04:01:18.141Z,68.39
2018-06-30T04:03:52.754Z,66.94
2018-06-30T04:06:27.192Z,66.86
2018-06-30T04:09:01.792Z,66.56
2018-06-30T04:11:36.531Z,66.85
2018-06-30T04:14:11.007Z,68.09
2018-06-30T04:16:45.447Z,67.51
2018-06-30T04:19:20.135Z,67.67
2018-06-30T04:21:54.535Z,67.62
2018-06-30T04:24:29.045Z,66.92
2018-06-30T04:27:03.602Z,66.41
2018-06-30T04:29:38.109Z,67.13
2018-06-30T04:32:12.505Z,66.54
2018-06-30T04:34:47.100Z,65.86
2018-06-30T04:37:21.538Z,66.18
2018-06-30T04:39:56.305Z,66.80
2018-06-30T04:42:30.723Z,65.35
2018-06-30T04:45:05.472Z,66.08
2018-06-30T04:47:39.932Z,65.24
2018-06-30T04:50:14.589Z,65.18
2018-06-30T04:52:49.140Z,64.98
2018-06-30T04:55:23.705Z,64.74
2018-06-30T04:57:58.147Z,63.99
2018-06-30T05:00:32.572Z,63.27
2018-06-30T05:03:07.249Z,63.44
2018-06-30T05:05:41.797Z,63.15
2018-06-30T05:08:16.288Z,63.58
2018-06-30T05:10:50.678Z,62.81
2018-06-30T05:13:25.105Z,62.59
2018-06-30T05:15:59.704Z,62.41
2018-06-30T05:18:34.198Z,61.67
2018-06-30T05:21:08.742Z,62.15
2018-06-30T05:23:43.227Z,61.57
2018-06-30T05:26:17.837Z,61.58
2018-06-30T05:28:52.315Z,61.70
2018-06-30T05:31:26.688Z,61.66
2018-06-30T05:34:01.201Z,60.64
2018-06-30T05:36:35.776Z,59.61
2018-06-30T05:39:10.402Z,58.84
2018-06-30T05:41:44.929Z,58.91
2018-06-30T05:44:19.410Z,57.95
2018-06-30T05:46:53.885Z,58.73
2018-06-30T05:49:28.356Z,58.36
2018-06-30T05:52:02.892Z,58.18
2018-06-30T05:54:37.481Z,58.01
2018-06-30T05:57:12.065Z,58.09
2018-06-30T05:59:46.458Z,57.11
2018-06-30T06:02:20.922Z,57.64
2018-06-30T06:04:55.572Z,56.48
2018-06-30T06:07:30.154Z,56.95
2018-06-30T06:10:04.786Z,56.52
2018-06-30T06:12:39.335Z,55.63
2018-06-30T06:15:13.938Z,56.00
2018-06-30T06:17:48.465Z,56.00
2018-06-30T06:20:22.912Z,54.93
2018-06-30T06:22:57.322Z,56.39
2018-06-30T06:25:32.051Z,56.88
2018-06-30T06:28:06.966Z,54.46
2018-06-30T06:30:41.425Z,54.20
2018-06-30T06:33:15.828Z,53.72
2018-06-30T06:35:50.189Z,53.43
2018-06-30T06:38:24.673Z,54.41
2018-06-30T06:40:59.260Z,54.01
2018-06-30T06:43:33.644Z,50.92
2018-06-30T06:46:08.247Z,48.01
2018-06-30T06:48:42.702Z,43.33
2018-06-30T06:51:17.152Z,42.22
2018-06-30T06:53:51.626Z,39.97
2018-06-30T06:56:26.090Z,38.68
2018-06-30T06:59:00.643Z,36.15
2018-06-30T07:01:35.077Z,37.44
2018-06-30T07:04:09.400Z,36.44
2018-06-30T07:06:43.898Z,37.43
2018-06-30T07:09:18.423Z,34.63
2018-06-30T07:11:54.178Z,35.03
2018-06-30T07:14:28.848Z,34.88
2018-06-30T07:17:03.417Z,33.82
2018-06-30T07:19:37.882Z,34.21
2018-06-30T07:22:12.333Z,32.92
2018-06-30T07:24:46.803Z,34.49
2018-06-30T07:27:21.144Z,33.02
2018-06-30T07:29:55.552Z,31.71
2018-06-30T07:32:30.073Z,31.47
2018-06-30T07:35:05.015Z,30.21
2018-06-30T07:37:39.342Z,32.38
2018-06-30T07:40:13.931Z,34.00
2018-06-30T07:42:48.303Z,33.22
2018-06-30T07:45:23.282Z,29.49
2018-06-30T07:47:57.685Z,31.61
2018-06-30T07:50:32.011Z,33.15
2018-06-30T07:53:06.560Z,34.30
2018-06-30T07:55:41.125Z,33.75
2018-06-30T07:58:15.520Z,32.90
2018-06-30T08:00:50.033Z,28.00
2018-06-30T08:03:24.364Z,28.35
2018-06-30T08:05:58.772Z,29.09
2018-06-30T08:08:33.279Z,26.46
2018-06-30T08:11:07.724Z,28.44
2018-06-30T08:13:42.116Z,27.74
2018-06-30T08:16:16.804Z,26.87
2018-06-30T08:18:51.356Z,27.41
2018-06-30T08:21:26.090Z,26.71
2018-06-30T08:24:00.619Z,26.97
2018-06-30T08:26:35.161Z,24.22
2018-06-30T08:29:09.777Z,25.20
2018-06-30T08:31:44.249Z,25.82
2018-06-30T08:34:18.688Z,25.42
2018-06-30T08:36:53.200Z,25.20
2018-06-30T08:39:27.645Z,28.83
2018-06-30T08:42:02.142Z,29.37
2018-06-30T08:44:36.730Z,27.53
2018-06-30T08:47:11.038Z,25.19
2018-06-30T08:49:45.452Z,25.08
2018-06-30T08:52:19.924Z,24.97
2018-06-30T08:54:54.728Z,25.86
2018-06-30T08:57:29.245Z,28.19
2018-06-30T09:00:05.071Z,27.22
2018-06-30T09:02:39.539Z,25.28
2018-06-30T09:05:13.926Z,25.07
2018-06-30T09:07:48.341Z,24.81
2018-06-30T09:10:22.833Z,25.67
2018-06-30T09:12:57.391Z,24.31
2018-06-30T09:15:31.791Z,26.80
2018-06-30T09:18:06.628Z,28.86
2018-06-30T09:20:41.076Z,28.99
2018-06-30T09:23:15.496Z,28.89
2018-06-30T09:25:49.840Z,28.34
2018-06-30T09:28:24.404Z,27.70
2018-06-30T09:30:58.992Z,27.61
2018-06-30T09:33:33.484Z,28.37
2018-06-30T09:36:08.190Z,25.55
2018-06-30T09:38:42.769Z,26.97
2018-06-30T09:41:17.260Z,30.81
2018-06-30T09:43:52.118Z,28.70
2018-06-30T09:46:26.587Z,28.46
2018-06-30T09:49:00.987Z,28.05
2018-06-30T09:51:35.647Z,28.91
2018-06-30T09:54:10.209Z,26.82
2018-06-30T09:56:44.765Z,27.99
2018-06-30T09:59:19.142Z,26.68
2018-06-30T10:01:53.564Z,26.69
2018-06-30T10:04:28.244Z,26.83
2018-06-30T10:07:02.623Z,28.04
2018-06-30T10:09:37.144Z,28.17
2018-06-30T10:12:11.528Z,28.32
2018-06-30T10:14:45.982Z,27.60
2018-06-30T10:17:20.227Z,28.01
2018-06-30T10:19:54.471Z,27.13
2018-06-30T10:22:28.704Z,27.15
2018-06-30T10:25:03.107Z,26.18
2018-06-30T10:27:37.472Z,26.12
2018-06-30T10:30:11.769Z,25.81
2018-06-30T10:32:46.043Z,26.66
2018-06-30T10:35:20.476Z,24.74
2018-06-30T10:37:54.791Z,26.39
2018-06-30T10:40:29.201Z,25.81
2018-06-30T10:43:03.481Z,24.21
2018-06-30T10:45:37.851Z,24.12
2018-06-30T10:48:12.241Z,23.56
2018-06-30T10:50:46.672Z,21.59
2018-06-30T10:53:20.979Z,23.90
2018-06-30T10:55:55.438Z,24.09
2018-06-30T10:58:29.815Z,26.11
2018-06-30T11:01:04.187Z,25.30
2018-06-30T11:03:38.589Z,25.67
2018-06-30T11:06:13.008Z,24.69
2018-06-30T11:08:47.431Z,24.09
2018-06-30T11:11:21.739Z,24.30
2018-06-30T11:13:56.167Z,24.24
2018-06-30T11:16:30.399Z,24.79
2018-06-30T11:19:04.883Z,24.53
2018-06-30T11:21:39.096Z,24.51
2018-06-30T11:24:13.448Z,26.01
2018-06-30T11:26:47.915Z,23.56
2018-06-30T11:29:22.713Z,25.72
2018-06-30T11:31:56.888Z,26.96
2018-06-30T11:34:31.108Z,25.33
2018-06-30T11:37:05.464Z,23.89
2018-06-30T11:39:39.701Z,25.06
2018-06-30T11:42:13.954Z,23.68
2018-06-30T11:44:48.363Z,26.43
2018-06-30T11:47:22.732Z,24.39
2018-06-30T11:49:57.118Z,24.01
2018-06-30T11:52:31.388Z,25.78
2018-06-30T11:55:06.072Z,26.12
2018-06-30T11:57:40.483Z,27.18
2018-06-30T12:00:14.931Z,28.17
2018-06-30T12:02:49.211Z,29.74
2018-06-30T12:05:23.605Z,31.50
2018-06-30T12:07:57.891Z,30.67
2018-06-30T12:10:32.307Z,31.22
2018-06-30T12:13:06.807Z,31.88
2018-06-30T12:15:41.227Z,31.96
2018-06-30T12:18:15.443Z,33.63
2018-06-30T12:20:49.875Z,32.99
2018-06-30T12:23:24.419Z,33.70
2018-06-30T12:25:58.830Z,34.05
2018-06-30T12:28:33.218Z,33.51
2018-06-30T12:31:07.612Z,33.65
2018-06-30T12:33:41.981Z,33.17
2018-06-30T12:36:16.341Z,32.81
2018-06-30T12:38:50.860Z,34.29
2018-06-30T12:41:25.341Z,33.47
2018-06-30T12:43:59.750Z,33.50
2018-06-30T12:46:34.484Z,33.53
2018-06-30T12:49:09.154Z,33.84
2018-06-30T12:51:43.688Z,32.69
2018-06-30T12:54:18.150Z,32.90
2018-06-30T12:56:52.525Z,32.37
2018-06-30T12:59:26.999Z,33.46
2018-06-30T13:02:01.582Z,33.96
2018-06-30T13:04:36.178Z,33.22
2018-06-30T13:07:10.739Z,32.94
2018-06-30T13:09:45.249Z,31.90
2018-06-30T13:12:19.661Z,32.38
2018-06-30T13:14:54.098Z,31.62
2018-06-30T13:17:28.701Z,32.77
2018-06-30T13:20:03.346Z,31.72
2018-06-30T13:22:37.900Z,31.24
2018-06-30T13:25:12.312Z,30.75
2018-06-30T13:27:46.799Z,30.70
2018-06-30T13:30:21.280Z,30.47
2018-06-30T13:32:55.642Z,30.67
2018-06-30T13:35:30.120Z,29.71
2018-06-30T13:38:04.634Z,29.35
2018-06-30T13:40:39.066Z,29.51
2018-06-30T13:43:13.711Z,29.48
2018-06-30T13:45:48.067Z,29.44
2018-06-30T13:48:22.453Z,28.50
2018-06-30T13:50:56.830Z,27.62
2018-06-30T13:53:31.222Z,28.67
2018-06-30T13:56:05.944Z,27.60
2018-06-30T13:58:40.547Z,28.09
2018-06-30T14:01:15.017Z,28.73
2018-06-30T14:03:49.749Z,26.96
2018-06-30T14:06:24.285Z,26.81
2018-06-30T14:08:58.750Z,27.59
2018-06-30T14:11:33.355Z,27.92
2018-06-30T14:14:08.346Z,27.15
2018-06-30T14:16:42.768Z,26.46
2018-06-30T14:19:17.264Z,25.78
2018-06-30T14:21:51.776Z,26.24
2018-06-30T14:24:26.327Z,25.08
2018-06-30T14:27:00.681Z,25.21
2018-06-30T14:29:35.145Z,24.53
2018-06-30T14:32:09.647Z,23.04
2018-06-30T14:34:44.225Z,23.10
2018-06-30T14:37:18.635Z,22.49
2018-06-30T14:39:53.188Z,22.93
2018-06-30T14:42:27.752Z,21.35
2018-06-30T14:45:02.328Z,21.27
2018-06-30T14:47:36.797Z,21.30
2018-06-30T14:50:11.168Z,20.61
2018-06-30T14:52:45.664Z,21.66
2018-06-30T14:55:20.232Z,20.97
2018-06-30T14:57:54.641Z,21.76
2018-06-30T15:00:28.951Z,20.85
2018-06-30T15:03:03.508Z,22.04
2018-06-30T15:05:38.125Z,21.71
2018-06-30T15:08:12.612Z,22.21
2018-06-30T15:10:47.254Z,21.10
2018-06-30T15:13:21.697Z,22.33
2018-06-30T15:15:56.262Z,21.52
2018-06-30T15:18:30.768Z,22.78
2018-06-30T15:21:05.165Z,22.93
2018-06-30T15:23:39.512Z,23.26
2018-06-30T15:26:14.064Z,23.08
2018-06-30T15:28:48.600Z,23.31
2018-06-30T15:31:23.033Z,23.48
2018-06-30T15:33:57.663Z,23.00
2018-06-30T15:36:32.120Z,23.46
2018-06-30T15:39:08.720Z,23.59
2018-06-30T15:41:43.176Z,23.79
2018-06-30T15:44:17.724Z,23.52
2018-06-30T15:46:52.474Z,23.17
2018-06-30T15:49:27.061Z,22.82
2018-06-30T15:52:01.665Z,22.74
2018-06-30T15:54:36.388Z,22.83
2018-06-30T15:57:10.829Z,23.02
2018-06-30T15:59:45.183Z,24.05
2018-06-30T16:02:19.680Z,23.99
2018-06-30T16:04:54.063Z,22.99
2018-06-30T16:07:28.731Z,23.03
2018-06-30T16:10:03.355Z,23.96
2018-06-30T16:12:37.779Z,23.99
2018-06-30T16:15:12.392Z,23.37
2018-06-30T16:17:47.001Z,23.58
2018-06-30T16:20:21.711Z,23.29
2018-06-30T16:22:56.215Z,23.40
2018-06-30T16:25:30.805Z,23.89
2018-06-30T16:28:05.747Z,24.00
2018-06-30T16:30:40.151Z,24.24
2018-06-30T16:33:14.645Z,24.11
2018-06-30T16:35:49.160Z,23.63
2018-06-30T16:38:23.698Z,24.82
2018-06-30T16:40:58.068Z,25.09
2018-06-30T16:43:32.445Z,26.09
2018-06-30T16:46:06.929Z,25.70
2018-06-30T16:48:41.524Z,26.13
2018-06-30T16:51:16.102Z,25.29
2018-06-30T16:53:50.880Z,25.96
2018-06-30T16:56:25.365Z,24.99
2018-06-30T16:59:00.001Z,25.49
2018-06-30T17:01:34.710Z,25.17
2018-06-30T17:04:09.451Z,25.05
2018-06-30T17:06:43.976Z,24.93
2018-06-30T17:09:18.628Z,24.70
2018-06-30T17:11:53.233Z,25.17
2018-06-30T17:14:27.644Z,24.62
2018-06-30T17:17:02.069Z,23.97
2018-06-30T17:19:36.547Z,23.97
2018-06-30T17:22:11.056Z,24.60
2018-06-30T17:24:45.420Z,23.57
2018-06-30T17:27:19.845Z,23.99
2018-06-30T17:29:54.436Z,23.61
2018-06-30T17:32:29.156Z,23.26
2018-06-30T17:35:03.734Z,22.94
2018-06-30T17:37:38.331Z,22.83
2018-06-30T17:40:13.041Z,23.47
2018-06-30T17:42:47.574Z,24.36
2018-06-30T17:45:22.169Z,24.08
2018-06-30T17:47:56.551Z,23.98
2018-06-30T17:50:31.201Z,22.74
2018-06-30T17:53:05.813Z,22.71
2018-06-30T17:55:40.452Z,22.89
2018-06-30T17:58:14.940Z,23.36
2018-06-30T18:00:49.463Z,23.29
2018-06-30T18:03:23.901Z,23.17
2018-06-30T18:05:58.626Z,24.71
2018-06-30T18:08:33.152Z,23.20
2018-06-30T18:11:07.761Z,23.50
2018-06-30T18:13:42.257Z,23.50
2018-06-30T18:16:16.636Z,23.91
2018-06-30T18:18:51.161Z,23.34
2018-06-30T18:21:25.744Z,23.50
2018-06-30T18:24:00.174Z,24.69
2018-06-30T18:26:34.708Z,23.42
2018-06-30T18:29:09.177Z,23.65
2018-06-30T18:31:43.568Z,24.13
2018-06-30T18:34:17.920Z,24.16
2018-06-30T18:36:52.404Z,24.40
2018-06-30T18:39:26.976Z,24.25
2018-06-30T18:42:01.532Z,23.76
2018-06-30T18:44:36.029Z,24.96
2018-06-30T18:47:10.604Z,24.58
2018-06-30T18:49:45.114Z,24.37
2018-06-30T18:52:19.732Z,24.84
2018-06-30T18:54:54.481Z,25.59
2018-06-30T18:57:29.172Z,25.74
2018-06-30T19:00:03.591Z,26.37
2018-06-30T19:02:38.141Z,25.77
2018-06-30T19:05:12.746Z,26.45
2018-06-30T19:07:47.486Z,26.23
2018-06-30T19:10:22.010Z,27.00
2018-06-30T19:12:56.453Z,27.75
2018-06-30T19:15:30.974Z,27.06
2018-06-30T19:18:05.874Z,28.36
2018-06-30T19:20:40.423Z,27.90
2018-06-30T19:23:15.037Z,28.32
2018-06-30T19:25:49.649Z,27.35
2018-06-30T19:28:24.273Z,27.10
2018-06-30T19:30:58.811Z,27.30
2018-06-30T19:33:33.258Z,28.69
2018-06-30T19:36:07.981Z,28.93
2018-06-30T19:38:42.532Z,28.54
2018-06-30T19:41:17.180Z,29.18
2018-06-30T19:43:51.796Z,28.68
2018-06-30T19:46:26.365Z,29.61
2018-06-30T19:49:00.968Z,29.79
2018-06-30T19:51:35.679Z,29.82
2018-06-30T19:54:10.195Z,29.38
2018-06-30T19:56:44.596Z,30.43
2018-06-30T19:59:19.084Z,29.99
2018-06-30T20:01:53.745Z,31.91
2018-06-30T20:04:28.332Z,31.11
2018-06-30T20:07:02.826Z,30.41
2018-06-30T20:09:37.324Z,30.17
2018-06-30T20:12:11.831Z,30.40
2018-06-30T20:14:46.530Z,32.23
2018-06-30T20:17:21.054Z,31.55
2018-06-30T20:19:55.706Z,30.90
2018-06-30T20:22:30.452Z,31.39
2018-06-30T20:25:05.371Z,31.36
2018-06-30T20:27:39.862Z,31.95
2018-06-30T20:30:14.661Z,31.06
2018-06-30T20:32:49.145Z,31.70
2018-06-30T20:35:23.766Z,31.24
2018-06-30T20:37:58.292Z,32.36
2018-06-30T20:40:32.713Z,31.62
2018-06-30T20:43:07.380Z,31.28
2018-06-30T20:45:41.901Z,30.70
2018-06-30T20:48:17.202Z,30.72
2018-06-30T20:50:51.869Z,30.18
2018-06-30T20:53:26.448Z,31.64
2018-06-30T20:56:00.881Z,32.13
2018-06-30T20:58:35.353Z,31.55
2018-06-30T21:01:09.833Z,32.49
2018-06-30T21:03:44.438Z,31.22
2018-06-30T21:06:18.717Z,32.20
2018-06-30T21:08:53.109Z,31.49
2018-06-30T21:11:27.500Z,31.30
2018-06-30T21:14:01.944Z,31.09
2018-06-30T21:16:36.578Z,31.04
2018-06-30T21:19:12.029Z,30.97
2018-06-30T21:21:46.640Z,31.46
2018-06-30T21:24:21.073Z,32.45
2018-06-30T21:26:55.518Z,32.30
2018-06-30T21:29:29.994Z,32.10
2018-06-30T21:32:04.396Z,31.84
2018-06-30T21:34:39.118Z,31.97
2018-06-30T21:37:13.788Z,31.95
2018-06-30T21:39:48.472Z,32.14
2018-06-30T21:42:23.182Z,31.97
2018-06-30T21:44:57.729Z,32.16
2018-06-30T21:47:32.403Z,31.80
2018-06-30T21:50:06.952Z,32.34
2018-06-30T21:52:41.587Z,31.64
2018-06-30T21:55:16.241Z,30.05
2018-06-30T21:57:50.755Z,30.19
2018-06-30T22:00:48.522Z,29.95
2018-06-30T22:03:25.281Z,29.65
2018-06-30T22:05:59.689Z,30.25
2018-06-30T22:08:34.189Z,30.41
2018-06-30T22:11:08.902Z,29.56
2018-06-30T22:13:43.328Z,30.17
2018-06-30T22:16:18.030Z,29.64
2018-06-30T22:18:52.601Z,29.36
2018-06-30T22:21:27.092Z,29.99
2018-06-30T22:24:01.541Z,29.94
2018-06-30T22:26:36.050Z,29.56
2018-06-30T22:29:10.435Z,29.63
2018-06-30T22:31:44.986Z,29.66
2018-06-30T22:34:19.466Z,30.39
2018-06-30T22:36:54.028Z,30.41
2018-06-30T22:39:39.979Z,31.12
2018-06-30T22:42:14.509Z,31.40
2018-06-30T22:44:49.168Z,31.07
2018-06-30T22:47:23.719Z,31.39
2018-06-30T22:49:59.037Z,31.32
2018-06-30T22:52:33.692Z,31.71
2018-06-30T22:55:08.407Z,31.81
2018-06-30T22:57:42.998Z,31.98
2018-06-30T23:00:18.734Z,31.40
2018-06-30T23:02:53.309Z,31.92
2018-06-30T23:05:27.910Z,31.99
2018-06-30T23:08:02.502Z,31.62
2018-06-30T23:10:37.218Z,31.85
2018-06-30T23:13:11.774Z,31.80
2018-06-30T23:15:46.395Z,32.69
2018-06-30T23:18:20.859Z,32.11
2018-06-30T23:20:55.310Z,32.36
2018-06-30T23:23:29.874Z,32.29
2018-06-30T23:26:04.539Z,32.59
2018-06-30T23:28:39.015Z,32.63
2018-06-30T23:31:13.580Z,33.02
2018-06-30T23:33:48.225Z,33.67
2018-06-30T23:36:22.729Z,33.60
2018-06-30T23:38:57.448Z,32.88
2018-06-30T23:41:31.976Z,33.31
2018-06-30T23:44:06.398Z,33.37
2018-06-30T23:46:41.023Z,32.93
2018-06-30T23:49:15.412Z,33.54
2018-06-30T23:51:49.861Z,33.74
2018-06-30T23:54:24.453Z,33.37
2018-06-30T23:56:58.932Z,33.30
2018-06-30T23:59:33.378Z,34.43
